Time,TemperatureF,DewpointF,PressureIn,WindDirection,WindDirectionDegrees,WindSpeedMPH,WindSpeedGustMPH,Humidity,HourlyPrecipIn,Conditions,Clouds,dailyrainin,SoftwareType,DateUTC
2013-11-03 00:04:00,54.2,49.8,29.90,NNE,13,0.0,0.0,85,0.00,,,0.00,Wunderground v.1.15,2013-11-03 04:04:00,
2013-11-03 00:14:00,53.7,49.6,29.90,NNE,13,0.0,0.0,86,0.00,,,0.00,Wunderground v.1.15,2013-11-03 04:14:00,
2013-11-03 00:19:00,53.6,49.8,29.90,NNE,13,0.0,0.0,87,0.00,,,0.00,Wunderground v.1.15,2013-11-03 04:19:00,
2013-11-03 00:29:00,53.5,49.4,29.90,NNE,13,0.0,0.0,86,0.00,,,0.00,Wunderground v.1.15,2013-11-03 04:29:00,
2013-11-03 00:44:00,53.7,49.6,29.90,NW,317,1.0,1.0,86,0.00,,,0.00,Wunderground v.1.15,2013-11-03 04:44:00,
2013-11-03 00:59:00,53.5,49.4,29.90,NW,317,0.0,0.0,86,0.00,,,0.00,Wunderground v.1.15,2013-11-03 04:59:00,
2013-11-03 01:09:00,52.9,48.8,29.90,NW,317,0.0,0.0,86,0.00,,,0.00,Wunderground v.1.15,2013-11-03 05:09:00,
2013-11-03 01:24:00,52.7,49.2,29.91,NW,317,0.0,0.0,88,0.00,,,0.00,Wunderground v.1.15,2013-11-03 05:24:00,
2013-11-03 01:39:00,52.7,49.2,29.91,NW,317,0.0,0.0,88,0.00,,,0.00,Wunderground v.1.15,2013-11-03 05:39:00,
2013-11-03 01:49:00,52.6,49.1,29.91,NW,317,0.0,0.0,88,0.00,,,0.00,Wunderground v.1.15,2013-11-03 05:49:00,
2013-11-03 01:04:00,52.4,48.6,29.91,NW,317,0.0,1.0,87,0.00,,,0.00,Wunderground v.1.15,2013-11-03 06:04:00,
2013-11-03 01:19:00,52.2,48.1,29.91,NW,317,0.0,0.0,86,0.00,,,0.00,Wunderground v.1.15,2013-11-03 06:19:00,
2013-11-03 01:34:00,52.2,47.8,29.91,NW,321,2.0,2.0,85,0.00,,,0.00,Wunderground v.1.15,2013-11-03 06:34:00,
2013-11-03 01:44:00,52.4,47.4,29.92,NNW,329,2.0,2.0,83,0.00,,,0.00,Wunderground v.1.15,2013-11-03 06:44:00,
2013-11-03 01:59:00,52.4,47.1,29.92,NW,325,2.0,2.0,82,0.00,,,0.00,Wunderground v.1.15,2013-11-03 06:59:00,
2013-11-03 02:14:00,51.8,46.5,29.93,NW,325,2.0,2.0,82,0.00,,,0.00,Wunderground v.1.15,2013-11-03 07:14:00,
2013-11-03 02:29:00,51.4,46.1,29.93,NW,325,2.0,2.0,82,0.00,,,0.00,Wunderground v.1.15,2013-11-03 07:29:00,
2013-11-03 02:44:00,51.3,45.7,29.93,North,355,2.0,3.0,81,0.00,,,0.00,Wunderground v.1.15,2013-11-03 07:44:00,
2013-11-03 02:54:00,51.1,45.5,29.94,North,355,2.0,2.0,81,0.00,,,0.00,Wunderground v.1.15,2013-11-03 07:54:00,
2013-11-03 03:09:00,51.1,45.1,29.94,North,355,2.0,2.0,80,0.00,,,0.00,Wunderground v.1.15,2013-11-03 08:09:00,
2013-11-03 03:24:00,50.7,44.8,29.95,NW,306,2.0,2.0,80,0.00,,,0.00,Wunderground v.1.15,2013-11-03 08:24:00,
2013-11-03 03:34:00,50.6,45.0,29.95,North,355,2.0,2.0,81,0.00,,,0.00,Wunderground v.1.15,2013-11-03 08:34:00,
2013-11-03 03:49:00,50.1,44.8,29.96,North,9,2.0,2.0,82,0.00,,,0.00,Wunderground v.1.15,2013-11-03 08:49:00,
2013-11-03 04:04:00,49.7,44.4,29.96,NNW,332,2.0,2.0,82,0.00,,,0.00,Wunderground v.1.15,2013-11-03 09:04:00,
2013-11-03 04:19:00,49.4,44.1,29.97,NNW,332,1.0,1.0,82,0.00,,,0.00,Wunderground v.1.15,2013-11-03 09:19:00,
2013-11-03 04:29:00,49.4,44.1,29.97,North,355,1.0,1.0,82,0.00,,,0.00,Wunderground v.1.15,2013-11-03 09:29:00,
2013-11-03 04:44:00,49.4,43.8,29.98,North,5,2.0,2.0,81,0.00,,,0.00,Wunderground v.1.15,2013-11-03 09:44:00,
2013-11-03 04:59:00,49.3,43.4,29.99,North,9,2.0,2.0,80,0.00,,,0.00,Wunderground v.1.15,2013-11-03 09:59:00,
2013-11-03 05:14:00,48.8,43.2,29.99,North,9,1.0,1.0,81,0.00,,,0.00,Wunderground v.1.15,2013-11-03 10:14:00,
2013-11-03 05:24:00,48.5,43.3,30.00,North,9,2.0,2.0,82,0.00,,,0.00,Wunderground v.1.15,2013-11-03 10:24:00,
2013-11-03 05:39:00,48.4,43.2,30.00,North,9,2.0,2.0,82,0.00,,,0.00,Wunderground v.1.15,2013-11-03 10:39:00,
2013-11-03 05:49:00,48.5,42.9,30.01,NNE,19,2.0,2.0,81,0.00,,,0.00,Wunderground v.1.15,2013-11-03 10:49:00,
2013-11-03 06:04:00,48.5,42.6,30.02,NNE,19,2.0,2.0,80,0.00,,,0.00,Wunderground v.1.15,2013-11-03 11:04:00,
2013-11-03 06:19:00,48.3,42.4,30.03,NNE,33,1.0,1.0,80,0.00,,,0.00,Wunderground v.1.15,2013-11-03 11:19:00,
2013-11-03 06:34:00,48.1,42.2,30.04,NNE,24,2.0,2.0,80,0.00,,,0.00,Wunderground v.1.15,2013-11-03 11:34:00,
2013-11-03 06:44:00,47.8,41.9,30.05,NNE,24,1.0,1.0,80,0.00,,,0.00,Wunderground v.1.15,2013-11-03 11:44:00,
2013-11-03 06:59:00,47.8,42.3,30.06,NNE,24,1.0,1.0,81,0.00,,,0.00,Wunderground v.1.15,2013-11-03 11:59:00,
2013-11-03 07:08:00,47.9,42.3,30.06,NNE,24,1.0,1.0,81,0.00,,,0.00,Wunderground v.1.15,2013-11-03 12:08:00,
2013-11-03 07:19:00,48.3,42.4,30.07,NNE,24,1.0,2.0,80,0.00,,,0.00,Wunderground v.1.15,2013-11-03 12:19:00,
2013-11-03 07:29:00,48.9,42.7,30.07,NNE,24,2.0,3.0,79,0.00,,,0.00,Wunderground v.1.15,2013-11-03 12:29:00,
2013-11-03 07:44:00,49.7,42.8,30.08,North,11,3.0,4.0,77,0.00,,,0.00,Wunderground v.1.15,2013-11-03 12:44:00,
2013-11-03 07:59:00,50.9,42.9,30.09,North,355,3.0,4.0,74,0.00,,,0.00,Wunderground v.1.15,2013-11-03 12:59:00,
2013-11-03 08:14:00,52.3,43.2,30.10,NE,43,4.0,5.0,71,0.00,,,0.00,Wunderground v.1.15,2013-11-03 13:14:00,
2013-11-03 08:29:00,53.5,43.2,30.10,NNE,27,5.0,6.0,68,0.00,,,0.00,Wunderground v.1.15,2013-11-03 13:29:00,
2013-11-03 08:39:00,54.1,43.4,30.11,NNW,336,5.0,5.0,67,0.00,,,0.00,Wunderground v.1.15,2013-11-03 13:39:00,
2013-11-03 08:54:00,55.2,44.4,30.12,North,355,4.0,4.0,67,0.00,,,0.00,Wunderground v.1.15,2013-11-03 13:54:00,
2013-11-03 09:09:00,55.8,43.8,30.12,NE,48,6.0,6.0,64,0.00,,,0.00,Wunderground v.1.15,2013-11-03 14:09:00,
2013-11-03 09:24:00,57.1,43.8,30.13,NNE,17,5.0,5.0,61,0.00,,,0.00,Wunderground v.1.15,2013-11-03 14:24:00,
2013-11-03 09:34:00,57.6,43.8,30.13,North,5,4.0,4.0,60,0.00,,,0.00,Wunderground v.1.15,2013-11-03 14:34:00,
2013-11-03 09:49:00,58.1,43.8,30.13,NE,34,6.0,6.0,59,0.00,,,0.00,Wunderground v.1.15,2013-11-03 14:49:00,
2013-11-03 10:04:00,58.9,43.2,30.14,NNW,348,4.0,4.0,56,0.00,,,0.00,Wunderground v.1.15,2013-11-03 15:04:00,
2013-11-03 10:19:00,59.1,43.4,30.14,NNE,26,6.0,9.0,56,0.00,,,0.00,Wunderground v.1.15,2013-11-03 15:19:00,
2013-11-03 10:34:00,59.7,43.5,30.14,NNW,329,4.0,4.0,55,0.00,,,0.00,Wunderground v.1.15,2013-11-03 15:34:00,
2013-11-03 10:44:00,60.0,43.3,30.14,NNE,24,4.0,8.0,54,0.00,,,0.00,Wunderground v.1.15,2013-11-03 15:44:00,
2013-11-03 10:59:00,60.5,42.8,30.14,NE,38,5.0,6.0,52,0.00,,,0.00,Wunderground v.1.15,2013-11-03 15:59:00,
2013-11-03 11:14:00,60.5,42.3,30.14,NNE,26,5.0,5.0,51,0.00,,,0.00,Wunderground v.1.15,2013-11-03 16:14:00,
2013-11-03 11:29:00,61.4,42.6,30.14,NE,43,5.0,5.0,50,0.00,,,0.00,Wunderground v.1.15,2013-11-03 16:29:00,
2013-11-03 11:39:00,61.3,42.5,30.14,North,355,5.0,5.0,50,0.00,,,0.00,Wunderground v.1.15,2013-11-03 16:39:00,
2013-11-03 11:54:00,61.7,41.8,30.13,North,5,4.0,4.0,48,0.00,,,0.00,Wunderground v.1.15,2013-11-03 16:54:00,
2013-11-03 12:09:00,62.3,41.2,30.12,NNW,342,5.0,7.0,46,0.00,,,0.00,Wunderground v.1.15,2013-11-03 17:09:00,
2013-11-03 12:19:00,62.3,41.2,30.12,North,355,6.0,6.0,46,0.00,,,0.00,Wunderground v.1.15,2013-11-03 17:19:00,
2013-11-03 12:34:00,62.8,41.1,30.11,North,360,4.0,5.0,45,0.00,,,0.00,Wunderground v.1.15,2013-11-03 17:34:00,
2013-11-03 12:49:00,62.6,43.2,30.11,NNW,343,6.0,6.0,49,0.00,,,0.00,Wunderground v.1.15,2013-11-03 17:49:00,
2013-11-03 13:04:00,63.6,42.4,30.11,NNW,336,5.0,5.0,46,0.00,,,0.00,Wunderground v.1.15,2013-11-03 18:04:00,
2013-11-03 13:19:00,63.5,42.3,30.11,North,360,4.0,4.0,46,0.00,,,0.00,Wunderground v.1.15,2013-11-03 18:19:00,
2013-11-03 13:29:00,63.8,42.0,30.11,NW,312,4.0,5.0,45,0.00,,,0.00,Wunderground v.1.15,2013-11-03 18:29:00,
2013-11-03 13:44:00,63.3,39.8,30.11,NNE,33,6.0,6.0,42,0.00,,,0.00,Wunderground v.1.15,2013-11-03 18:44:00,
2013-11-03 13:59:00,63.3,41.0,30.11,ENE,57,6.0,8.0,44,0.00,,,0.00,Wunderground v.1.15,2013-11-03 18:59:00,
2013-11-03 14:14:00,63.9,41.0,30.12,NNE,18,5.0,5.0,43,0.00,,,0.00,Wunderground v.1.15,2013-11-03 19:14:00,
2013-11-03 14:29:00,63.7,41.4,30.11,North,5,6.0,7.0,44,0.00,,,0.00,Wunderground v.1.15,2013-11-03 19:29:00,
2013-11-03 14:39:00,64.1,41.1,30.12,North,10,5.0,6.0,43,0.00,,,0.00,Wunderground v.1.15,2013-11-03 19:39:00,
2013-11-03 14:54:00,63.7,40.8,30.12,NE,40,5.0,5.0,43,0.00,,,0.00,Wunderground v.1.15,2013-11-03 19:54:00,
2013-11-03 15:09:00,63.9,41.0,30.12,NW,312,5.0,5.0,43,0.00,,,0.00,Wunderground v.1.15,2013-11-03 20:09:00,
2013-11-03 15:24:00,63.8,40.9,30.12,NNW,340,4.0,4.0,43,0.00,,,0.00,Wunderground v.1.15,2013-11-03 20:24:00,
2013-11-03 15:39:00,63.9,41.0,30.13,NNE,33,4.0,6.0,43,0.00,,,0.00,Wunderground v.1.15,2013-11-03 20:39:00,
2013-11-03 15:49:00,63.4,40.5,30.13,North,360,6.0,6.0,43,0.00,,,0.00,Wunderground v.1.15,2013-11-03 20:49:00,
2013-11-03 16:04:00,63.4,41.1,30.13,NE,40,5.0,8.0,44,0.00,,,0.00,Wunderground v.1.15,2013-11-03 21:04:00,
2013-11-03 16:19:00,63.1,40.8,30.13,NNE,17,4.0,7.0,44,0.00,,,0.00,Wunderground v.1.15,2013-11-03 21:19:00,
2013-11-03 16:34:00,62.5,40.9,30.14,NE,34,5.0,5.0,45,0.00,,,0.00,Wunderground v.1.15,2013-11-03 21:34:00,
2013-11-03 16:49:00,62.0,41.5,30.14,NNE,20,3.0,5.0,47,0.00,,,0.00,Wunderground v.1.15,2013-11-03 21:49:00,
2013-11-03 16:59:00,61.5,41.6,30.14,NNE,23,5.0,6.0,48,0.00,,,0.00,Wunderground v.1.15,2013-11-03 21:59:00,
2013-11-03 17:14:00,60.2,42.0,30.15,NNW,341,3.0,3.0,51,0.00,,,0.00,Wunderground v.1.15,2013-11-03 22:14:00,
2013-11-03 17:29:00,58.9,42.8,30.16,ENE,69,1.0,1.0,55,0.00,,,0.00,Wunderground v.1.15,2013-11-03 22:29:00,
2013-11-03 17:44:00,57.6,43.8,30.17,ENE,69,1.0,1.0,60,0.00,,,0.00,Wunderground v.1.15,2013-11-03 22:44:00,
2013-11-03 17:54:00,56.9,44.0,30.17,ENE,66,2.0,2.0,62,0.00,,,0.00,Wunderground v.1.15,2013-11-03 22:54:00,
2013-11-03 18:09:00,56.5,43.6,30.18,ENE,58,1.0,1.0,62,0.00,,,0.00,Wunderground v.1.15,2013-11-03 23:09:00,
2013-11-03 18:24:00,55.6,43.6,30.19,ENE,58,0.0,0.0,64,0.00,,,0.00,Wunderground v.1.15,2013-11-03 23:24:00,
2013-11-03 18:39:00,54.6,43.9,30.19,ENE,58,0.0,0.0,67,0.00,,,0.00,Wunderground v.1.15,2013-11-03 23:39:00,
2013-11-03 18:54:00,53.5,44.7,30.20,ENE,58,0.0,0.0,72,0.00,,,0.00,Wunderground v.1.15,2013-11-03 23:54:00,
2013-11-03 19:04:00,52.8,45.4,30.21,ENE,58,0.0,0.0,76,0.00,,,0.00,Wunderground v.1.15,2013-11-04 00:04:00,
2013-11-03 19:19:00,52.3,45.6,30.21,ENE,58,0.0,0.0,78,0.00,,,0.00,Wunderground v.1.15,2013-11-04 00:19:00,
2013-11-03 19:34:00,51.4,45.1,30.22,ENE,58,0.0,0.0,79,0.00,,,0.00,Wunderground v.1.15,2013-11-04 00:34:00,
2013-11-03 19:44:00,51.2,45.2,30.22,ENE,58,0.0,0.0,80,0.00,,,0.00,Wunderground v.1.15,2013-11-04 00:44:00,
2013-11-03 19:59:00,50.6,45.6,30.23,ENE,58,0.0,0.0,83,0.00,,,0.00,Wunderground v.1.15,2013-11-04 00:59:00,
2013-11-03 20:14:00,50.9,45.6,30.23,ENE,58,0.0,0.0,82,0.00,,,0.00,Wunderground v.1.15,2013-11-04 01:14:00,
2013-11-03 20:29:00,49.6,45.0,30.24,ENE,58,0.0,0.0,84,0.00,,,0.00,Wunderground v.1.15,2013-11-04 01:29:00,
2013-11-03 20:39:00,50.2,44.6,30.24,ENE,58,1.0,1.0,81,0.00,,,0.00,Wunderground v.1.15,2013-11-04 01:39:00,
2013-11-03 20:54:00,50.1,44.5,30.25,ENE,58,2.0,2.0,81,0.00,,,0.00,Wunderground v.1.15,2013-11-04 01:54:00,
2013-11-03 21:09:00,50.0,44.4,30.25,ENE,58,0.0,0.0,81,0.00,,,0.00,Wunderground v.1.15,2013-11-04 02:09:00,
2013-11-03 21:24:00,49.9,44.0,30.25,ENE,58,1.0,2.0,80,0.00,,,0.00,Wunderground v.1.15,2013-11-04 02:24:00,
2013-11-03 21:34:00,49.7,44.1,30.25,ENE,58,1.0,1.0,81,0.00,,,0.00,Wunderground v.1.15,2013-11-04 02:34:00,
2013-11-03 21:49:00,49.7,43.5,30.26,ENE,58,1.0,1.0,79,0.00,,,0.00,Wunderground v.1.15,2013-11-04 02:49:00,
2013-11-03 22:04:00,49.4,42.8,30.26,ENE,58,0.0,0.0,78,0.00,,,0.00,Wunderground v.1.15,2013-11-04 03:04:00,
2013-11-03 22:19:00,49.2,43.0,30.26,ENE,59,0.0,1.0,79,0.00,,,0.00,Wunderground v.1.15,2013-11-04 03:19:00,
2013-11-03 22:34:00,48.8,42.6,30.27,NE,49,1.0,1.0,79,0.00,,,0.00,Wunderground v.1.15,2013-11-04 03:34:00,
2013-11-03 22:44:00,48.6,42.4,30.27,NE,49,0.0,0.0,79,0.00,,,0.00,Wunderground v.1.15,2013-11-04 03:44:00,
2013-11-03 22:59:00,48.5,42.3,30.27,NE,49,0.0,0.0,79,0.00,,,0.00,Wunderground v.1.15,2013-11-04 03:59:00,
2013-11-03 23:14:00,48.5,42.3,30.28,NE,53,1.0,1.0,79,0.00,,,0.00,Wunderground v.1.15,2013-11-04 04:14:00,
2013-11-03 23:24:00,48.4,42.5,30.27,NE,53,1.0,2.0,80,0.00,,,0.00,Wunderground v.1.15,2013-11-04 04:24:00,
2013-11-03 23:39:00,47.8,42.3,30.28,NE,53,1.0,1.0,81,0.00,,,0.00,Wunderground v.1.15,2013-11-04 04:39:00,
2013-11-03 23:54:00,47.6,42.1,30.28,NNE,30,1.0,4.0,81,0.00,,,0.00,Wunderground v.1.15,2013-11-04 04:54:00,